Time;durP1;ratioP1;P1;durP2;ratioP2;P2;SDS_P1;SDS_P2;PMS_P1;PMS_P2;Temp;Humidity;BMP_temperature;BMP_pressure;BME280_temperature;BME280_humidity;BME280_pressure;Samples;Min_cycle;Max_cycle;Signal;HPM_P1;HPM_P2
2022/08/31 00:04:00;;;;;;;;;;;;;;;16.76;62.31;102148.44;5056449;28;19974;-53
2022/08/31 00:06:25;;;;;;;;;;;;;;;16.72;62.34;102146.91;5043106;28;19959;-51
2022/08/31 00:08:50;;;;;;;;;;;;;;;16.70;62.37;102144.34;5045126;28;20355;-51
2022/08/31 00:11:17;;;;;;;;;;;;;;;16.67;62.47;102143.66;5052016;28;20404;-52
2022/08/31 00:13:43;;;;;;;;;;;;;;;16.64;62.53;102152.69;5045694;28;19971;-51
2022/08/31 00:16:09;;;;;;;;;;;;;;;16.61;62.52;102148.44;5057415;28;20787;-51
2022/08/31 00:18:35;;;;;;;;;;;;;;;16.64;62.48;102151.84;5048003;28;19920;-53
2022/08/31 00:21:00;;;;;;;;;;;;;;;16.66;62.45;102149.94;5051576;28;19921;-53
2022/08/31 00:23:25;;;;;;;;;;;;;;;16.69;62.46;102150.63;5049239;28;20308;-51
2022/08/31 00:25:51;;;;;;;;;;;;;;;16.68;62.54;102156.00;5055960;28;19977;-52
2022/08/31 00:28:17;;;;;;;;;;;;;;;16.67;62.54;102157.81;5051265;28;19920;-52
2022/08/31 00:30:43;;;;;;;;;;;;;;;16.66;62.57;102150.81;5051239;28;20022;-51
2022/08/31 00:33:10;;;;;;;;;;;;;;;16.65;62.75;102151.75;5046080;28;19924;-52
2022/08/31 00:35:36;;;;;;;;;;;;;;;16.64;62.78;102151.84;5050713;28;19925;-52
2022/08/31 00:38:02;;;;;;;;;;;;;;;16.62;62.65;102149.28;5050302;28;19933;-53
2022/08/31 00:40:27;;;;;;;;;;;;;;;16.62;62.79;102151.94;5044489;28;19922;-51
2022/08/31 00:42:53;;;;;;;;;;;;;;;16.63;62.92;102150.97;5051383;28;19932;-51
2022/08/31 00:45:18;;;;;;;;;;;;;;;16.59;62.90;102149.44;5053732;28;20871;-52
2022/08/31 00:47:44;;;;;;;;;;;;;;;16.55;62.87;102146.13;5049601;28;20281;-51
2022/08/31 00:50:10;;;;;;;;;;;;;;;16.50;63.14;102144.72;5058466;28;19939;-52
2022/08/31 00:52:37;;;;;;;;;;;;;;;16.48;63.10;102139.50;5054630;28;19923;-51
2022/08/31 00:55:21;;;;;;;;;;;;;;;16.48;63.29;102141.28;5060462;28;19927;-52
2022/08/31 00:57:48;;;;;;;;;;;;;;;16.42;63.18;102145.16;5056868;28;20273;-51
2022/08/31 01:00:15;;;;;;;;;;;;;;;16.40;63.32;102137.31;5049364;28;19981;-52
2022/08/31 01:02:41;;;;;;;;;;;;;;;16.39;63.46;102135.59;5047723;28;19921;-53
2022/08/31 01:05:10;;;;;;;;;;;;;;;16.38;63.47;102140.97;5054053;28;19928;-52
2022/08/31 01:07:36;;;;;;;;;;;;;;;16.37;63.52;102140.16;5049362;28;19924;-52
2022/08/31 01:10:01;;;;;;;;;;;;;;;16.38;63.59;102135.66;5050072;28;19927;-51
2022/08/31 01:12:27;;;;;;;;;;;;;;;16.40;63.52;102144.41;5052582;28;19932;-52
2022/08/31 01:14:53;;;;;;;;;;;;;;;16.40;63.39;102144.41;5050256;28;19921;-52
2022/08/31 01:17:19;;;;;;;;;;;;;;;16.39;63.58;102142.69;5045981;28;19937;-52
2022/08/31 01:19:50;;;;;;;;;;;;;;;16.36;63.60;102145.53;5055776;28;19928;-52
2022/08/31 01:22:19;;;;;;;;;;;;;;;16.32;63.72;102136.91;5052003;28;19920;-51
2022/08/31 01:24:45;;;;;;;;;;;;;;;16.29;63.83;102147.69;5050685;28;19928;-53
2022/08/31 01:27:12;;;;;;;;;;;;;;;16.29;63.81;102139.72;5053475;28;20047;-53
2022/08/31 01:29:37;;;;;;;;;;;;;;;16.29;63.84;102137.06;5047370;28;20418;-53
2022/08/31 01:32:04;;;;;;;;;;;;;;;16.30;63.69;102134.34;5052360;28;19933;-53
2022/08/31 01:34:29;;;;;;;;;;;;;;;16.30;63.82;102136.13;5051440;28;19932;-52
2022/08/31 01:36:55;;;;;;;;;;;;;;;16.32;63.74;102136.06;5048248;28;19925;-52
2022/08/31 01:39:20;;;;;;;;;;;;;;;16.32;63.80;102142.22;5043918;28;20277;-54
2022/08/31 01:41:46;;;;;;;;;;;;;;;16.31;63.77;102145.81;5043699;28;19928;-52
2022/08/31 01:44:16;;;;;;;;;;;;;;;16.29;63.69;102137.06;5054810;28;19936;-54
2022/08/31 01:46:41;;;;;;;;;;;;;;;16.26;63.88;102147.91;5043925;28;19946;-52
2022/08/31 01:49:07;;;;;;;;;;;;;;;16.24;63.87;102144.47;5052553;28;19920;-53
2022/08/31 01:51:32;;;;;;;;;;;;;;;16.21;63.86;102152.63;5029013;28;20389;-52
2022/08/31 01:53:58;;;;;;;;;;;;;;;16.18;63.82;102144.84;5044040;28;20011;-54
2022/08/31 01:56:28;;;;;;;;;;;;;;;16.17;63.87;102153.75;5049470;28;20014;-54
2022/08/31 01:58:53;;;;;;;;;;;;;;;16.16;63.88;102144.94;5045648;28;19929;-53
2022/08/31 02:01:22;;;;;;;;;;;;;;;16.17;63.93;102145.78;5047289;28;19967;-51
2022/08/31 02:03:47;;;;;;;;;;;;;;;16.16;63.90;102142.28;5058973;28;19974;-52
2022/08/31 02:06:13;;;;;;;;;;;;;;;16.17;63.95;102143.13;5055476;28;19928;-52
2022/08/31 02:08:38;;;;;;;;;;;;;;;16.17;63.97;102137.81;5052508;28;19928;-54
2022/08/31 02:11:05;;;;;;;;;;;;;;;16.14;63.88;102139.69;5046604;28;19924;-54
2022/08/31 02:13:30;;;;;;;;;;;;;;;16.13;63.96;102139.81;5046861;28;20015;-53
2022/08/31 02:15:56;;;;;;;;;;;;;;;16.12;63.95;102140.75;5042307;28;19924;-52
2022/08/31 02:18:22;;;;;;;;;;;;;;;16.10;63.99;102138.19;5045500;28;19942;-54
2022/08/31 02:20:47;;;;;;;;;;;;;;;16.10;63.88;102143.50;5040548;28;19946;-52
2022/08/31 02:23:12;;;;;;;;;;;;;;;16.08;63.87;102142.72;5045372;28;21484;-52
2022/08/31 02:25:37;;;;;;;;;;;;;;;16.05;64.18;102140.25;5052466;28;20003;-52
2022/08/31 02:28:03;;;;;;;;;;;;;;;16.05;63.98;102134.94;5051818;28;19933;-52
2022/08/31 02:30:28;;;;;;;;;;;;;;;16.04;64.07;102142.97;5044575;28;19927;-52
2022/08/31 02:32:54;;;;;;;;;;;;;;;16.02;63.96;102143.09;5058082;28;19939;-52
2022/08/31 02:35:19;;;;;;;;;;;;;;;16.00;64.04;102148.50;5042979;28;19925;-53
2022/08/31 02:37:44;;;;;;;;;;;;;;;15.99;64.08;102146.78;5045668;28;19921;-52
2022/08/31 02:40:10;;;;;;;;;;;;;;;16.00;63.84;102147.63;5057743;28;20850;-52
2022/08/31 02:42:36;;;;;;;;;;;;;;;15.98;64.07;102146.84;5046285;28;20952;-53
2022/08/31 02:45:01;;;;;;;;;;;;;;;15.96;64.22;102141.66;5054460;28;19945;-53
2022/08/31 02:47:29;;;;;;;;;;;;;;;15.96;64.18;102146.97;5048877;28;19954;-53
2022/08/31 02:49:55;;;;;;;;;;;;;;;16.00;64.03;102147.63;5045776;28;20308;-52
2022/08/31 02:52:20;;;;;;;;;;;;;;;16.00;64.14;102152.94;5053024;28;19932;-52
2022/08/31 02:54:45;;;;;;;;;;;;;;;15.98;64.08;102154.81;5059585;28;19931;-54
2022/08/31 02:57:11;;;;;;;;;;;;;;;15.96;64.13;102156.69;5061214;28;19925;-53
2022/08/31 02:59:36;;;;;;;;;;;;;;;15.95;64.18;102152.38;5054527;28;19924;-55
2022/08/31 03:02:02;;;;;;;;;;;;;;;15.93;64.12;102152.44;5047561;28;19924;-53
2022/08/31 03:04:28;;;;;;;;;;;;;;;15.93;64.12;102155.09;5054655;28;20338;-53
2022/08/31 03:06:53;;;;;;;;;;;;;;;15.92;64.15;102144.56;5050895;28;19930;-53
2022/08/31 03:09:18;;;;;;;;;;;;;;;15.90;64.24;102147.31;5056732;28;19929;-52
2022/08/31 03:11:44;;;;;;;;;;;;;;;15.91;64.31;102142.88;5051342;28;19928;-52
2022/08/31 03:14:09;;;;;;;;;;;;;;;15.90;64.24;102142.00;5051726;28;19928;-53
2022/08/31 03:16:37;;;;;;;;;;;;;;;15.90;64.20;102142.00;5048897;28;20019;-52
2022/08/31 03:19:02;;;;;;;;;;;;;;;15.91;64.20;102145.50;5055482;28;20327;-53
2022/08/31 03:21:27;;;;;;;;;;;;;;;15.91;64.21;102142.88;5054167;28;19927;-52
2022/08/31 03:23:52;;;;;;;;;;;;;;;15.90;64.15;102130.53;5059698;28;20010;-53
2022/08/31 03:26:18;;;;;;;;;;;;;;;15.88;64.14;102140.38;5055551;28;20417;-52
2022/08/31 03:28:43;;;;;;;;;;;;;;;15.85;64.11;102142.25;5056221;28;19975;-53
2022/08/31 03:31:09;;;;;;;;;;;;;;;15.84;64.28;102137.88;5047675;28;19928;-52
2022/08/31 03:33:34;;;;;;;;;;;;;;;15.83;64.29;102138.81;5060464;28;19986;-52
2022/08/31 03:36:01;;;;;;;;;;;;;;;15.83;64.21;102144.13;5057542;28;19935;-52
2022/08/31 03:38:27;;;;;;;;;;;;;;;15.83;64.33;102138.81;5055917;28;19939;-52
2022/08/31 03:40:53;;;;;;;;;;;;;;;15.83;64.26;102145.94;5059447;28;19921;-53
2022/08/31 03:43:20;;;;;;;;;;;;;;;15.82;64.37;102145.06;5057648;28;20288;-52
2022/08/31 03:45:47;;;;;;;;;;;;;;;15.81;64.37;102143.34;5057785;28;19963;-52
2022/08/31 03:48:12;;;;;;;;;;;;;;;15.78;64.32;102148.84;5057767;28;19928;-53
2022/08/31 03:50:38;;;;;;;;;;;;;;;15.78;64.47;102146.19;5058582;28;19917;-52
2022/08/31 03:53:04;;;;;;;;;;;;;;;15.76;64.42;102150.75;5053481;28;20007;-52
2022/08/31 03:55:30;;;;;;;;;;;;;;;15.74;64.53;102154.41;5055429;28;20411;-51
2022/08/31 03:57:56;;;;;;;;;;;;;;;15.73;64.47;102156.22;5065777;28;19932;-52
2022/08/31 04:00:21;;;;;;;;;;;;;;;15.73;64.48;102161.53;5053917;28;19928;-52
2022/08/31 04:02:47;;;;;;;;;;;;;;;15.73;64.44;102158.03;5057863;28;20386;-52
2022/08/31 04:05:13;;;;;;;;;;;;;;;15.73;64.56;102161.53;5056594;28;19925;-53
2022/08/31 04:07:38;;;;;;;;;;;;;;;15.74;64.44;102154.41;5049223;28;20307;-52
2022/08/31 04:10:04;;;;;;;;;;;;;;;15.72;64.47;102165.13;5058523;28;19928;-53
2022/08/31 04:12:30;;;;;;;;;;;;;;;15.71;64.49;102168.72;5059323;28;20258;-52
2022/08/31 04:14:55;;;;;;;;;;;;;;;15.69;64.42;102167.94;5049971;28;20300;-51
2022/08/31 04:17:20;;;;;;;;;;;;;;;15.67;64.57;102161.84;5056457;28;19928;-53
2022/08/31 04:19:46;;;;;;;;;;;;;;;15.68;64.50;102171.53;5065996;28;19950;-53
2022/08/31 04:22:11;;;;;;;;;;;;;;;15.66;64.42;102171.63;5051323;28;19929;-52
2022/08/31 04:24:36;;;;;;;;;;;;;;;15.67;64.45;102168.03;5051729;28;19924;-52
2022/08/31 04:27:02;;;;;;;;;;;;;;;15.67;64.39;102162.72;5037806;28;19932;-52
2022/08/31 04:29:27;;;;;;;;;;;;;;;15.66;64.46;102162.78;5051796;28;19928;-52
2022/08/31 04:31:52;;;;;;;;;;;;;;;15.64;64.55;102168.19;5047375;28;19967;-52
2022/08/31 04:34:18;;;;;;;;;;;;;;;15.60;64.54;102171.97;5057257;28;20015;-51
2022/08/31 04:36:44;;;;;;;;;;;;;;;15.59;64.67;102167.59;5059760;28;19928;-53
2022/08/31 04:39:10;;;;;;;;;;;;;;;15.57;64.54;102173.94;5057485;28;19924;-51
2022/08/31 04:41:37;;;;;;;;;;;;;;;15.56;64.76;102167.78;5051185;28;19935;-51
2022/08/31 04:44:03;;;;;;;;;;;;;;;15.57;64.76;102165.97;5060726;28;19925;-51
2022/08/31 04:46:28;;;;;;;;;;;;;;;15.58;64.77;102167.69;5063631;28;20007;-51
2022/08/31 04:48:54;;;;;;;;;;;;;;;15.59;64.71;102170.25;5042833;28;20081;-52
2022/08/31 04:51:23;;;;;;;;;;;;;;;15.59;64.80;102174.72;5059624;28;19924;-51
2022/08/31 04:53:49;;;;;;;;;;;;;;;15.59;64.83;102177.38;5057553;28;19924;-52
2022/08/31 04:56:17;;;;;;;;;;;;;;;15.61;64.75;102180.78;5059199;28;19977;-53
2022/08/31 04:58:43;;;;;;;;;;;;;;;15.63;64.87;102178.91;5058206;28;19923;-52
2022/08/31 05:01:10;;;;;;;;;;;;;;;15.62;64.94;102177.19;5062139;28;20299;-52
2022/08/31 05:03:35;;;;;;;;;;;;;;;15.64;64.90;102180.63;5065353;28;19924;-53
2022/08/31 05:06:01;;;;;;;;;;;;;;;15.65;64.97;102177.88;5064710;28;19920;-52
2022/08/31 05:08:27;;;;;;;;;;;;;;;15.67;64.91;102169.81;5062537;28;19979;-52
2022/08/31 05:10:53;;;;;;;;;;;;;;;15.67;64.94;102172.47;5061121;28;19935;-52
2022/08/31 05:13:18;;;;;;;;;;;;;;;15.67;64.90;102176.00;5062439;28;19928;-51
2022/08/31 05:15:44;;;;;;;;;;;;;;;15.66;65.03;102173.41;5062981;28;19947;-52
2022/08/31 05:18:11;;;;;;;;;;;;;;;15.64;65.23;102173.50;5063948;28;19916;-52
2022/08/31 05:20:37;;;;;;;;;;;;;;;15.65;65.24;102177.03;5063722;28;19916;-53
2022/08/31 05:23:02;;;;;;;;;;;;;;;15.66;65.33;102178.72;5078499;28;19917;-52
2022/08/31 05:25:28;;;;;;;;;;;;;;;15.65;65.32;102185.00;5061940;28;19925;-52
2022/08/31 05:27:53;;;;;;;;;;;;;;;15.65;65.52;102187.66;5064327;28;20339;-51
2022/08/31 05:30:19;;;;;;;;;;;;;;;15.66;65.51;102179.59;5059519;28;20042;-51
2022/08/31 05:32:45;;;;;;;;;;;;;;;15.68;65.65;102190.09;5060808;28;19932;-51
2022/08/31 05:35:10;;;;;;;;;;;;;;;15.71;65.73;102181.97;5061323;28;19916;-52
2022/08/31 05:37:36;;;;;;;;;;;;;;;15.75;65.70;102186.19;5060594;28;19966;-52
2022/08/31 05:40:01;;;;;;;;;;;;;;;15.78;65.77;102186.00;5058443;28;19943;-52
2022/08/31 05:42:26;;;;;;;;;;;;;;;15.80;65.70;102194.75;5060381;28;19920;-52
2022/08/31 05:44:52;;;;;;;;;;;;;;;15.83;65.91;102193.69;5061941;28;19942;-53
2022/08/31 05:47:17;;;;;;;;;;;;;;;15.83;65.86;102199.84;5064347;28;19924;-54
2022/08/31 05:49:42;;;;;;;;;;;;;;;15.87;66.04;102194.41;5062093;28;19975;-53
2022/08/31 05:52:08;;;;;;;;;;;;;;;15.89;65.99;102205.78;5061168;28;19932;-52
2022/08/31 05:54:34;;;;;;;;;;;;;;;15.91;66.10;102202.09;5062460;28;19928;-52
2022/08/31 05:57:00;;;;;;;;;;;;;;;15.93;66.07;102207.34;5063746;28;20610;-53
2022/08/31 05:59:25;;;;;;;;;;;;;;;15.95;66.20;102213.41;5062839;28;19995;-53
2022/08/31 06:01:50;;;;;;;;;;;;;;;15.98;66.26;102205.25;5062661;28;19927;-52
2022/08/31 06:04:16;;;;;;;;;;;;;;;15.96;66.44;102209.78;5061114;28;19920;-52
2022/08/31 06:06:42;;;;;;;;;;;;;;;15.92;66.64;102197.66;5062817;28;19935;-53
2022/08/31 06:09:07;;;;;;;;;;;;;;;15.94;66.66;102204.59;5062354;28;19925;-53
2022/08/31 06:11:34;;;;;;;;;;;;;;;15.96;66.67;102200.03;5052808;28;20399;-53
2022/08/31 06:14:00;;;;;;;;;;;;;;;15.97;66.82;102206.19;5058294;28;20766;-53
2022/08/31 06:16:26;;;;;;;;;;;;;;;15.96;66.96;102200.03;5061466;28;19929;-52
2022/08/31 06:18:57;;;;;;;;;;;;;;;15.96;67.00;102204.47;5061003;28;20296;-53
2022/08/31 06:21:26;;;;;;;;;;;;;;;15.98;66.90;102207.91;5062482;28;19924;-53
2022/08/31 06:23:52;;;;;;;;;;;;;;;16.02;66.95;102211.28;5063136;28;19929;-52
2022/08/31 06:26:19;;;;;;;;;;;;;;;16.04;67.09;102212.88;5058525;28;19920;-53
2022/08/31 06:28:45;;;;;;;;;;;;;;;16.07;67.04;102217.16;5062644;28;19920;-52
2022/08/31 06:31:17;;;;;;;;;;;;;;;16.10;67.13;102223.16;5063934;28;19920;-53
2022/08/31 06:33:42;;;;;;;;;;;;;;;16.14;67.17;102211.41;5062764;28;19974;-52
2022/08/31 06:36:12;;;;;;;;;;;;;;;16.18;67.16;102206.78;5065357;28;20826;-52
2022/08/31 06:38:39;;;;;;;;;;;;;;;16.25;67.30;102212.59;5062384;28;20274;-53
2022/08/31 06:41:14;;;;;;;;;;;;;;;16.34;67.16;102209.38;5057003;28;19963;-51
2022/08/31 06:43:39;;;;;;;;;;;;;;;16.40;66.99;102210.81;5062924;28;19927;-52
2022/08/31 06:46:05;;;;;;;;;;;;;;;16.44;67.00;102221.16;5060074;28;19917;-52
2022/08/31 06:48:31;;;;;;;;;;;;;;;16.49;66.88;102212.91;5061421;28;20045;-53
2022/08/31 06:50:56;;;;;;;;;;;;;;;16.52;66.80;102217.22;5061687;28;19928;-52
2022/08/31 06:53:22;;;;;;;;;;;;;;;16.55;66.87;102214.38;5062322;28;19920;-52
2022/08/31 06:55:47;;;;;;;;;;;;;;;16.57;66.89;102215.13;5058499;28;20457;-53
2022/08/31 06:58:13;;;;;;;;;;;;;;;16.59;66.97;102218.53;5062809;28;19916;-52
2022/08/31 07:00:38;;;;;;;;;;;;;;;16.61;66.78;102217.53;5057101;28;20039;-51
2022/08/31 07:03:21;;;;;;;;;;;;;;;16.63;66.55;102220.06;5060648;28;20425;-51
2022/08/31 07:05:47;;;;;;;;;;;;;;;16.69;66.72;102232.13;5059621;28;20618;-52
2022/08/31 07:08:13;;;;;;;;;;;;;;;16.77;66.51;102229.88;5057646;28;19916;-52
2022/08/31 07:10:38;;;;;;;;;;;;;;;16.83;66.43;102221.53;5059810;28;19924;-51
2022/08/31 07:13:03;;;;;;;;;;;;;;;16.88;66.34;102224.75;5063134;28;19933;-52
2022/08/31 07:15:28;;;;;;;;;;;;;;;16.94;66.04;102228.84;5058154;28;20008;-52
2022/08/31 07:17:54;;;;;;;;;;;;;;;16.97;66.03;102234.00;5043412;28;20019;-54
2022/08/31 07:20:19;;;;;;;;;;;;;;;17.02;65.84;102237.22;5060326;28;19916;-53
2022/08/31 07:22:44;;;;;;;;;;;;;;;17.05;65.69;102237.03;5063169;28;19928;-53
2022/08/31 07:25:10;;;;;;;;;;;;;;;17.10;65.53;102230.59;5063619;28;19924;-53
2022/08/31 07:27:35;;;;;;;;;;;;;;;17.14;65.57;102232.97;5061186;28;20841;-52
2022/08/31 07:30:01;;;;;;;;;;;;;;;17.21;65.66;102228.13;5061551;28;20281;-52
2022/08/31 07:32:26;;;;;;;;;;;;;;;17.26;65.23;102228.69;5060474;28;19928;-51
2022/08/31 07:34:51;;;;;;;;;;;;;;;17.31;65.24;102231.06;5063031;28;19930;-51
2022/08/31 07:42:48;;;;;;;;;;;;;;;17.50;64.85;102241.38;5066337;28;19931;-51
2022/08/31 07:45:23;;;;;;;;;;;;;;;17.58;64.51;102240.91;5064036;28;19928;-55
2022/08/31 07:47:49;;;;;;;;;;;;;;;17.64;64.58;102244.03;5063824;28;19959;-51
2022/08/31 07:50:15;;;;;;;;;;;;;;;17.69;64.20;102241.09;5064144;28;19948;-52
2022/08/31 07:52:47;;;;;;;;;;;;;;;17.73;63.93;102241.75;5064234;28;19920;-51
2022/08/31 07:55:13;;;;;;;;;;;;;;;17.78;63.94;102244.94;5062785;28;19920;-51
2022/08/31 07:57:43;;;;;;;;;;;;;;;17.82;64.05;102241.13;5065580;28;19917;-52
2022/08/31 08:00:09;;;;;;;;;;;;;;;17.86;63.60;102242.66;5063087;28;20406;-52
2022/08/31 08:02:38;;;;;;;;;;;;;;;17.88;63.33;102243.41;5062456;28;19943;-52
2022/08/31 08:05:21;;;;;;;;;;;;;;;17.90;63.23;102238.84;5041856;28;19967;-53
2022/08/31 08:07:51;;;;;;;;;;;;;;;17.93;63.06;102243.09;5064166;28;19917;-53
2022/08/31 08:10:20;;;;;;;;;;;;;;;17.95;62.87;102242.03;5059722;28;20218;-54
2022/08/31 08:13:02;;;;;;;;;;;;;;;17.96;62.50;102243.75;5062491;28;19929;-51
2022/08/31 08:15:28;;;;;;;;;;;;;;;17.98;62.79;102247.19;5059082;28;19999;-52
2022/08/31 08:17:53;;;;;;;;;;;;;;;18.02;62.87;102245.19;5059929;28;19920;-52
2022/08/31 08:20:19;;;;;;;;;;;;;;;18.08;62.72;102258.09;5063143;28;19920;-52
2022/08/31 08:22:45;;;;;;;;;;;;;;;18.12;62.57;102248.97;5062541;28;19927;-52
2022/08/31 08:25:11;;;;;;;;;;;;;;;18.19;62.50;102253.88;5061741;28;20295;-54
2022/08/31 08:27:36;;;;;;;;;;;;;;;18.26;62.13;102256.03;5061258;28;19940;-52
2022/08/31 08:30:03;;;;;;;;;;;;;;;18.33;61.86;102258.28;5062347;28;19920;-52
2022/08/31 08:32:30;;;;;;;;;;;;;;;18.38;61.86;102258.81;5059682;28;20411;-54
2022/08/31 08:34:55;;;;;;;;;;;;;;;18.42;61.63;102255.00;5058549;28;20311;-51
2022/08/31 08:37:21;;;;;;;;;;;;;;;18.48;61.53;102251.06;5063795;28;19913;-52
2022/08/31 08:39:46;;;;;;;;;;;;;;;18.53;61.59;102257.78;5063297;28;19921;-52
2022/08/31 08:42:13;;;;;;;;;;;;;;;18.58;61.31;102257.50;5061505;28;19931;-53
2022/08/31 08:44:39;;;;;;;;;;;;;;;18.64;61.34;102258.91;5060398;28;19916;-52
2022/08/31 08:47:06;;;;;;;;;;;;;;;18.69;61.04;102254.94;5067271;28;19925;-51
2022/08/31 08:49:40;;;;;;;;;;;;;;;18.74;60.85;102254.63;5061789;28;19924;-51
2022/08/31 08:52:21;;;;;;;;;;;;;;;18.77;60.62;102254.44;5059903;28;20060;-52
2022/08/31 08:54:48;;;;;;;;;;;;;;;18.78;60.48;102257.94;5064330;28;19966;-51
2022/08/31 08:57:25;;;;;;;;;;;;;;;18.78;60.32;102266.81;5062807;28;20027;-53
2022/08/31 08:59:52;;;;;;;;;;;;;;;18.77;60.12;102262.44;5065586;28;19919;-51
2022/08/31 09:02:20;;;;;;;;;;;;;;;18.77;60.48;102254.44;5063173;28;19912;-54
2022/08/31 09:04:48;;;;;;;;;;;;;;;18.75;60.06;102256.34;5064109;28;20316;-51
2022/08/31 09:07:29;;;;;;;;;;;;;;;18.76;60.21;102252.72;5064217;28;19978;-54
2022/08/31 09:10:04;;;;;;;;;;;;;;;18.77;60.20;102251.75;5066050;28;19913;-52
2022/08/31 09:12:45;;;;;;;;;;;;;;;18.82;60.20;102254.97;5061098;28;20539;-52
2022/08/31 09:15:16;;;;;;;;;;;;;;;18.92;59.91;102251.66;5062527;28;19931;-52
2022/08/31 09:18:02;;;;;;;;;;;;;;;18.97;59.50;102258.41;5060638;28;20558;-51
2022/08/31 09:20:27;;;;;;;;;;;;;;;19.02;59.44;102247.41;5061459;28;19921;-53
2022/08/31 09:22:56;;;;;;;;;;;;;;;19.04;59.55;102246.38;5060936;28;19927;-51
2022/08/31 09:25:27;;;;;;;;;;;;;;;19.05;59.49;102249.88;5060682;28;19932;-52
2022/08/31 09:27:57;;;;;;;;;;;;;;;19.07;59.18;102244.41;5062726;28;20379;-53
2022/08/31 09:30:31;;;;;;;;;;;;;;;19.06;58.51;102238.25;5060008;28;20379;-52
2022/08/31 09:32:56;;;;;;;;;;;;;;;19.08;58.65;102247.00;5061096;28;19921;-52
2022/08/31 09:35:42;;;;;;;;;;;;;;;19.11;58.50;102237.91;5060871;28;19935;-51
2022/08/31 09:38:10;;;;;;;;;;;;;;;19.15;58.30;102237.59;5060591;28;19936;-52
2022/08/31 09:40:38;;;;;;;;;;;;;;;19.22;57.82;102243.34;5059559;28;20014;-52
2022/08/31 09:43:05;;;;;;;;;;;;;;;19.25;57.85;102237.78;5061305;28;19924;-52
2022/08/31 09:45:34;;;;;;;;;;;;;;;19.29;57.71;102238.41;5060022;28;20015;-53
2022/08/31 09:48:01;;;;;;;;;;;;;;;19.32;57.35;102240.88;5062652;28;19963;-52
2022/08/31 09:50:29;;;;;;;;;;;;;;;19.34;57.40;102237.16;5061603;28;19944;-52
2022/08/31 09:56:04;;;;;;;;;;;;;;;19.42;56.82;102239.25;5058904;28;20019;-52
2022/08/31 09:58:32;;;;;;;;;;;;;;;19.44;56.75;102236.47;5060330;28;19962;-52
2022/08/31 10:01:11;;;;;;;;;;;;;;;19.46;56.64;102240.72;5059660;28;19948;-51
2022/08/31 10:03:37;;;;;;;;;;;;;;;19.47;56.49;102234.44;5058782;28;19921;-53
2022/08/31 10:06:08;;;;;;;;;;;;;;;19.50;56.24;102231.53;5062205;28;19954;-51
2022/08/31 10:08:37;;;;;;;;;;;;;;;19.54;56.06;102228.66;5060801;28;20380;-52
2022/08/31 10:11:12;;;;;;;;;;;;;;;19.55;55.95;102228.53;5061110;28;19916;-54
2022/08/31 10:13:45;;;;;;;;;;;;;;;19.57;55.97;102223.09;5064951;28;20205;-52
2022/08/31 10:16:15;;;;;;;;;;;;;;;19.61;55.53;102221.88;5059904;28;19917;-52
2022/08/31 10:19:08;;;;;;;;;;;;;;;19.67;55.62;102216.13;5061387;28;20014;-52
2022/08/31 10:21:34;;;;;;;;;;;;;;;19.75;55.38;102227.06;5057083;28;21591;-52
2022/08/31 10:24:27;;;;;;;;;;;;;;;19.81;54.90;102231.13;5059064;28;20387;-52
2022/08/31 10:27:16;;;;;;;;;;;;;;;19.89;54.91;102225.25;5061704;28;20014;-53
2022/08/31 10:30:01;;;;;;;;;;;;;;;19.97;54.47;102222.00;5054065;28;20376;-53
2022/08/31 10:32:45;;;;;;;;;;;;;;;20.03;54.39;102227.75;5057527;28;20376;-52
2022/08/31 10:35:18;;;;;;;;;;;;;;;20.11;53.99;102227.19;5059409;28;19945;-52
2022/08/31 10:38:07;;;;;;;;;;;;;;;20.17;53.79;102226.69;5058220;28;20453;-52
2022/08/31 10:40:36;;;;;;;;;;;;;;;20.23;53.25;102228.06;5057249;28;19998;-54
2022/08/31 10:43:08;;;;;;;;;;;;;;;20.29;53.33;102221.38;5063653;28;20426;-53
2022/08/31 10:45:37;;;;;;;;;;;;;;;20.34;53.03;102219.22;5059942;28;20390;-53
2022/08/31 10:48:03;;;;;;;;;;;;;;;20.40;53.03;102224.97;5058632;28;20015;-53
2022/08/31 10:50:47;;;;;;;;;;;;;;;20.43;53.14;102218.50;5060907;28;19931;-53
2022/08/31 10:53:32;;;;;;;;;;;;;;;20.48;53.10;102224.38;5055760;28;19936;-52
2022/08/31 10:56:01;;;;;;;;;;;;;;;20.53;53.08;102218.66;5058635;28;19956;-52
2022/08/31 10:58:55;;;;;;;;;;;;;;;20.58;52.84;102224.53;5076602;28;19916;-54
2022/08/31 11:01:37;;;;;;;;;;;;;;;20.62;52.83;102222.44;5054585;28;19920;-53
2022/08/31 11:04:09;;;;;;;;;;;;;;;20.65;52.83;102217.72;5064730;28;19921;-53
2022/08/31 11:06:37;;;;;;;;;;;;;;;20.69;52.39;102219.19;5060269;28;19924;-53
2022/08/31 11:09:11;;;;;;;;;;;;;;;20.75;52.12;102212.53;5062455;28;19970;-52
2022/08/31 11:11:45;;;;;;;;;;;;;;;20.80;52.25;102210.34;5059161;28;20330;-54
2022/08/31 11:14:25;;;;;;;;;;;;;;;20.83;51.78;102210.13;5063049;28;20303;-52
2022/08/31 11:16:51;;;;;;;;;;;;;;;20.86;51.63;102215.25;5062248;28;20011;-53
2022/08/31 11:19:31;;;;;;;;;;;;;;;20.92;51.80;102208.56;5063012;28;19920;-52
2022/08/31 11:22:01;;;;;;;;;;;;;;;20.94;51.44;102201.25;5057972;28;19924;-53
2022/08/31 11:24:39;;;;;;;;;;;;;;;21.01;51.53;102201.63;5062712;28;20815;-54
2022/08/31 11:27:19;;;;;;;;;;;;;;;21.08;51.58;102196.63;5065215;28;20077;-53
2022/08/31 11:29:57;;;;;;;;;;;;;;;21.14;51.46;102190.78;5064799;28;19917;-53
2022/08/31 11:32:23;;;;;;;;;;;;;;;21.22;51.18;102198.19;5067434;28;19958;-54
2022/08/31 11:34:53;;;;;;;;;;;;;;;21.29;50.89;102194.91;5066791;28;20391;-56
2022/08/31 11:37:37;;;;;;;;;;;;;;;21.39;50.82;102191.50;5064913;28;21216;-53
2022/08/31 11:40:08;;;;;;;;;;;;;;;21.45;50.73;102189.16;5064410;28;20354;-53
2022/08/31 11:42:36;;;;;;;;;;;;;;;21.50;50.27;102188.78;5064194;28;19924;-53
2022/08/31 11:45:22;;;;;;;;;;;;;;;21.52;49.91;102194.88;5064980;28;19939;-52
2022/08/31 11:47:53;;;;;;;;;;;;;;;21.50;49.66;102180.75;5062737;28;19956;-54
2022/08/31 11:50:22;;;;;;;;;;;;;;;21.52;50.03;102189.50;5066312;28;19924;-53
2022/08/31 11:52:49;;;;;;;;;;;;;;;21.54;49.80;102192.91;5060439;28;20010;-52
2022/08/31 11:55:22;;;;;;;;;;;;;;;21.53;49.98;102180.50;5061020;28;20020;-52
2022/08/31 11:58:06;;;;;;;;;;;;;;;21.49;49.95;102187.06;5065685;28;19931;-52
2022/08/31 12:00:42;;;;;;;;;;;;;;;21.42;49.88;102184.06;5055646;28;19920;-52
2022/08/31 12:03:08;;;;;;;;;;;;;;;21.37;49.80;102180.06;5061238;28;20004;-53
2022/08/31 12:05:55;;;;;;;;;;;;;;;21.35;49.51;102176.66;5062037;28;19925;-53
2022/08/31 12:08:21;;;;;;;;;;;;;;;21.34;49.87;102167.75;5061142;28;19920;-52
2022/08/31 12:10:55;;;;;;;;;;;;;;;21.36;49.61;102170.31;5060225;28;20062;-53
2022/08/31 12:13:32;;;;;;;;;;;;;;;21.41;49.47;102170.78;5065039;28;20007;-53
2022/08/31 12:16:11;;;;;;;;;;;;;;;21.47;49.30;102160.44;5067441;28;19920;-52
2022/08/31 12:18:37;;;;;;;;;;;;;;;21.57;49.27;102155.16;5067030;28;19924;-53
2022/08/31 12:24:11;;;;;;;;;;;;;;;21.79;48.79;102148.06;5060189;28;20500;-52
2022/08/31 12:26:47;;;;;;;;;;;;;;;21.90;48.12;102160.56;5061300;28;19925;-52
2022/08/31 12:29:15;;;;;;;;;;;;;;;21.94;47.89;102161.97;5065358;28;20411;-52
2022/08/31 12:31:43;;;;;;;;;;;;;;;21.93;47.88;102163.81;5064087;28;19923;-51
2022/08/31 12:34:15;;;;;;;;;;;;;;;21.92;48.13;102159.44;5064092;28;19927;-54
2022/08/31 12:36:41;;;;;;;;;;;;;;;21.93;47.98;102150.41;5066915;28;19916;-53
2022/08/31 12:39:12;;;;;;;;;;;;;;;21.96;47.79;102148.47;5064617;28;19924;-53
2022/08/31 12:41:48;;;;;;;;;;;;;;;21.93;47.74;102144.22;5061609;28;19924;-54
2022/08/31 12:44:19;;;;;;;;;;;;;;;21.91;47.97;102136.28;5063826;28;19923;-53
2022/08/31 12:46:56;;;;;;;;;;;;;;;21.94;47.90;102137.84;5064831;28;19966;-52
2022/08/31 12:49:40;;;;;;;;;;;;;;;21.99;47.69;102145.53;5043466;28;19921;-52
2022/08/31 12:52:05;;;;;;;;;;;;;;;22.04;47.88;102143.28;5057066;28;19927;-53
2022/08/31 12:54:49;;;;;;;;;;;;;;;22.10;47.43;102141.91;5060980;28;20398;-54
2022/08/31 12:57:20;;;;;;;;;;;;;;;22.15;47.53;102137.03;5062666;28;20303;-54